LIPOLJPZ

Guest
Details From LIPO - Montichiari
To LJPZ - PORTOROZ
Flight Number -
Tags generated
Created
Modified
Stats Distance 138 nm / 256 km
Max Altitude 0 ft / 0 m
Waypoints 3
Social Downloads 0
Likes 0
Share VATSIM

Download

Looking for another format? Having issues loading an existing format? Contact us
Advertisement - Login to hide

Notes

None

Route

LIPO VENDA LJPZ

ID Type Via Altitude Latitude Longitude Leg Dist Tot Dist Heading (true) Name
O LIPO APT - 0 ft / 0 m 45.42855˚ 10.33128˚ - 0 nm - Montichiari
VENDA FIX - 0 ft / 0 m 45.47333˚ 11.50083˚ 49 nm 49 nm 86° / 87° -
O LJPZ APT - 0 ft / 0 m 45.47244˚ 13.61568˚ 89 nm 138 nm 89° / 91° PORTOROZ

Altitude Profile

Advertisement - Login to hide

LIPO

Details ICAO LIPO (VBS)
Name Montichiari
Region Italy
Timezone Europe/Rome (UTC+1.0)
Stats Elevation 344 ft / 105 m (AMSL)
Location 45.428548° 10.331283°
Runways 1
Magnetic Variation 2.739° E

METAR

LIPO 161250Z 29010KT 9999 FEW020 07/09 Q1008

Decode

TAF

TAF LIPO 161100Z 1612/1712 29008KT 8000 NSC

Decode

Departure Runways

ID Width Length Bearing (true) Bearing (mag) Surface Threshold Offset Overrun Length
14 154 ft / 47 m 9,821 ft / 2,993 m 134.99° 132.25° Asphalt 984 ft / 300 m 0 ft / 0 m
32 154 ft / 47 m 9,821 ft / 2,993 m 315.01° 312.27° Asphalt 623 ft / 190 m 0 ft / 0 m

LJPZ

Details ICAO LJPZ (POW)
Name PORTOROZ
Region Slovenia
Timezone Europe/Ljubljana (UTC+1.0)
Stats Elevation 7 ft / 2 m (AMSL)
Location 45.472445° 13.615681°
Runways 1
Magnetic Variation 3.444° E

METAR

LJPZ 161330Z 10004KT CAVOK 09/M00 Q1007

Decode

TAF

Not found

Destination Runways

ID Width Length Bearing (true) Bearing (mag) Surface Threshold Offset Overrun Length
15 98 ft / 30 m 3,939 ft / 1,201 m 151.28° 147.84° Asphalt 0 ft / 0 m 0 ft / 0 m
33 98 ft / 30 m 3,939 ft / 1,201 m 331.29° 327.85° Asphalt 751 ft / 229 m 0 ft / 0 m